This demonstration page uses our WeatherBlox Daily Observations layout. Learn more.

36.19886, -115.1175

Hourly Observations for May 13, 2018

Temp ( °F °C ) Dew Point ( °F °C ) Humidity (%) Winds ( mph kmh ) Pressure ( in mb ) Visibility ( mi km ) Precip ( " mm )
12:53 am 00:53 Clear 68 20 22 -5.6 17 17 N 3 6 29.8 1009 10 16.09344 0 0
1:53 am 01:53 Clear 67 19.4 20 -6.7 17 17 Calm 29.8 1009 10 16.09344 0 0
2:53 am 02:53 Clear 66 18.9 18 -7.8 16 16 NNW 7 11 29.8 1009 10 16.09344 0 0
3:53 am 03:53 Clear 64 17.8 24 -4.4 22 22 NNW 5 7 29.8 1009 10 16.09344 0 0
4:53 am 04:53 Clear 64 17.8 25 -3.9 23 23 N 3 6 29.83 1010 10 16.09344 0 0
5:53 am 05:53 Sunny 64 17.8 28 -2.2 26 26 N 12 19 29.83 1010 10 16.09344 0 0
6:53 am 06:53 Sunny 67 19.4 27 -2.8 22 22 N 10 17 29.85 1011 10 16.09344 0 0
7:53 am 07:53 Sunny 69 20.6 28 -2.2 22 22 N 10 17 29.85 1011 10 16.09344 0 0
8:53 am 08:53 Sunny 71 21.7 26 -3.3 19 19 Calm 29.88 1012 10 16.09344 0 0
9:53 am 09:53 Sunny 73 22.8 26 -3.3 17 17 N 3 6 29.88 1012 10 16.09344 0 0
10:53 am 10:53 Sunny 75 23.9 27 -2.8 17 17 S 3 6 29.88 1012 10 16.09344 0 0
11:53 am 11:53 Sunny 78 25.6 30 -1.1 17 17 SW 10 17 29.85 1011 10 16.09344 0 0
12:53 pm 12:53 Sunny 80 26.7 27 -2.8 14 14 SSE 12 19 29.83 1010 10 16.09344 0 0
1:53 pm 13:53 Sunny 80 26.7 24 -4.4 13 13 SSE 5 7 29.8 1009 10 16.09344 0 0
2:53 pm 14:53 Mostly Sunny 82 27.8 26 -3.3 13 13 SSW 10 17 29.8 1009 10 16.09344 0 0
3:53 pm 15:53 Sunny 82 27.8 28 -2.2 14 14 S 10 17 29.77 1008 10 16.09344 0 0
4:53 pm 16:53 Partly Cloudy 83 28.3 30 -1.1 15 15 ESE 14 22 29.77 1008 10 16.09344 0 0
5:53 pm 17:53 Sunny 81 27.2 24 -4.4 12 12 W 6 9 29.77 1008 10 16.09344 0 0
6:53 pm 18:53 Sunny 81 27.2 29 -1.7 15 15 WSW 10 17 29.77 1008 10 16.09344 0 0
7:53 pm 19:53 Clear 79 26.1 30 -1.1 17 17 SW 13 20 29.77 1008 10 16.09344 0 0
8:53 pm 20:53 Mostly Clear 78 25.6 29 -1.7 16 16 SW 8 13 29.8 1009 10 16.09344 0 0
9:53 pm 21:53 Clear 77 25 29 -1.7 17 17 SSW 9 15 29.8 1009 10 16.09344 0 0
10:53 pm 22:53 Clear 75 23.9 27 -2.8 17 17 SSW 9 15 29.8 1009 10 16.09344 0 0
11:53 pm 23:53 Clear 73 22.8 28 -2.2 19 19 Calm 29.8 1009 10 16.09344 0 0

Powered by AerisWeather